sensor_id;sensor_type;location;lat;lon;timestamp;pressure;altitude;pressure_sealevel;temperature;humidity
77149;BME280;66122;47.130;16.844;2024-01-10T00:07:06;101371.31;;;-4.85;88.16
77149;BME280;66122;47.130;16.844;2024-01-10T00:17:08;101374.28;;;-5.23;90.84
77149;BME280;66122;47.130;16.844;2024-01-10T00:27:11;101377.72;;;-5.46;92.13
77149;BME280;66122;47.130;16.844;2024-01-10T00:37:13;101385.97;;;-5.33;92.14
77149;BME280;66122;47.130;16.844;2024-01-10T00:47:16;101390.69;;;-5.45;92.20
77149;BME280;66122;47.130;16.844;2024-01-10T00:57:19;101403.03;;;-5.82;94.09
77149;BME280;66122;47.130;16.844;2024-01-10T01:07:21;101404.31;;;-5.95;96.09
77149;BME280;66122;47.130;16.844;2024-01-10T01:17:23;101395.91;;;-5.91;94.88
77149;BME280;66122;47.130;16.844;2024-01-10T01:27:26;101406.81;;;-6.19;96.15
77149;BME280;66122;47.130;16.844;2024-01-10T01:37:29;101404.06;;;-6.23;96.25
77149;BME280;66122;47.130;16.844;2024-01-10T01:47:32;101396.41;;;-6.43;96.27
77149;BME280;66122;47.130;16.844;2024-01-10T01:57:36;101384.19;;;-6.47;96.16
77149;BME280;66122;47.130;16.844;2024-01-10T02:07:39;101397.41;;;-6.60;96.74
77149;BME280;66122;47.130;16.844;2024-01-10T02:17:42;101384.56;;;-6.38;96.98
77149;BME280;66122;47.130;16.844;2024-01-10T02:27:45;101365.53;;;-6.41;96.96
77149;BME280;66122;47.130;16.844;2024-01-10T02:37:47;101368.22;;;-6.38;96.87
77149;BME280;66122;47.130;16.844;2024-01-10T02:47:53;101370.50;;;-6.46;97.48
77149;BME280;66122;47.130;16.844;2024-01-10T02:57:56;101368.59;;;-6.91;98.24
77149;BME280;66122;47.130;16.844;2024-01-10T03:07:58;101371.09;;;-7.14;99.07
77149;BME280;66122;47.130;16.844;2024-01-10T03:18:01;101365.41;;;-6.65;99.74
77149;BME280;66122;47.130;16.844;2024-01-10T03:28:04;101376.69;;;-6.63;98.54
77149;BME280;66122;47.130;16.844;2024-01-10T03:38:07;101376.75;;;-7.01;98.42
77149;BME280;66122;47.130;16.844;2024-01-10T03:48:10;101369.38;;;-6.73;99.01
77149;BME280;66122;47.130;16.844;2024-01-10T03:58:12;101381.94;;;-6.81;99.57
77149;BME280;66122;47.130;16.844;2024-01-10T04:08:15;101384.03;;;-6.91;98.89
77149;BME280;66122;47.130;16.844;2024-01-10T04:18:20;101384.84;;;-6.73;99.78
77149;BME280;66122;47.130;16.844;2024-01-10T04:28:23;101377.72;;;-6.99;99.25
77149;BME280;66122;47.130;16.844;2024-01-10T04:38:26;101380.53;;;-7.14;99.04
77149;BME280;66122;47.130;16.844;2024-01-10T04:48:29;101380.28;;;-6.99;100.00
77149;BME280;66122;47.130;16.844;2024-01-10T04:58:31;101389.06;;;-7.15;100.00
77149;BME280;66122;47.130;16.844;2024-01-10T05:08:35;101388.56;;;-7.06;100.00
77149;BME280;66122;47.130;16.844;2024-01-10T05:18:37;101384.38;;;-7.24;100.00
77149;BME280;66122;47.130;16.844;2024-01-10T05:28:40;101395.06;;;-7.34;100.00
77149;BME280;66122;47.130;16.844;2024-01-10T05:38:42;101396.56;;;-7.39;100.00
77149;BME280;66122;47.130;16.844;2024-01-10T05:48:45;101394.81;;;-7.21;100.00
77149;BME280;66122;47.130;16.844;2024-01-10T05:58:49;101394.81;;;-7.21;100.00
77149;BME280;66122;47.130;16.844;2024-01-10T06:08:53;101393.41;;;-7.14;100.00
77149;BME280;66122;47.130;16.844;2024-01-10T06:18:55;101387.22;;;-7.18;100.00
77149;BME280;66122;47.130;16.844;2024-01-10T06:28:58;101393.97;;;-7.20;100.00
77149;BME280;66122;47.130;16.844;2024-01-10T06:39:01;101397.06;;;-7.84;100.00
77149;BME280;66122;47.130;16.844;2024-01-10T06:49:04;101423.09;;;-7.78;100.00
77149;BME280;66122;47.130;16.844;2024-01-10T06:59:07;101423.53;;;-7.50;100.00
77149;BME280;66122;47.130;16.844;2024-01-10T07:09:11;101431.38;;;-7.47;100.00
77149;BME280;66122;47.130;16.844;2024-01-10T07:19:15;101436.28;;;-7.15;100.00
77149;BME280;66122;47.130;16.844;2024-01-10T07:29:19;101438.84;;;-6.35;100.00
77149;BME280;66122;47.130;16.844;2024-01-10T07:39:22;101431.72;;;-5.75;100.00
77149;BME280;66122;47.130;16.844;2024-01-10T07:49:24;101441.00;;;-5.58;100.00
77149;BME280;66122;47.130;16.844;2024-01-10T07:59:28;101447.13;;;-5.56;100.00
77149;BME280;66122;47.130;16.844;2024-01-10T08:09:31;101444.47;;;-4.37;100.00
77149;BME280;66122;47.130;16.844;2024-01-10T08:19:33;101420.59;;;-3.16;96.79
77149;BME280;66122;47.130;16.844;2024-01-10T08:29:38;101445.75;;;-2.49;93.18
77149;BME280;66122;47.130;16.844;2024-01-10T08:39:41;101452.94;;;-1.28;84.48
77149;BME280;66122;47.130;16.844;2024-01-10T08:49:45;101445.13;;;-0.88;79.81
77149;BME280;66122;47.130;16.844;2024-01-10T08:59:47;101455.75;;;-0.30;75.85
77149;BME280;66122;47.130;16.844;2024-01-10T09:09:51;101451.22;;;0.11;72.97
77149;BME280;66122;47.130;16.844;2024-01-10T09:19:54;101451.69;;;1.09;70.69
77149;BME280;66122;47.130;16.844;2024-01-10T09:29:56;101455.59;;;0.73;73.74
77149;BME280;66122;47.130;16.844;2024-01-10T09:39:59;101453.22;;;1.70;67.32
77149;BME280;66122;47.130;16.844;2024-01-10T09:50:02;101443.59;;;1.68;66.82
77149;BME280;66122;47.130;16.844;2024-01-10T10:00:09;101419.94;;;1.49;68.21
77149;BME280;66122;47.130;16.844;2024-01-10T10:10:13;101400.66;;;1.35;70.03
77149;BME280;66122;47.130;16.844;2024-01-10T10:20:24;101402.59;;;2.88;64.86
77149;BME280;66122;47.130;16.844;2024-01-10T10:30:28;101380.00;;;3.35;59.87
77149;BME280;66122;47.130;16.844;2024-01-10T10:40:32;101369.50;;;4.16;58.21
77149;BME280;66122;47.130;16.844;2024-01-10T10:50:35;101361.66;;;3.93;59.20
77149;BME280;66122;47.130;16.844;2024-01-10T11:00:39;101348.53;;;5.73;54.20
77149;BME280;66122;47.130;16.844;2024-01-10T11:10:44;101345.41;;;5.19;52.15
77149;BME280;66122;47.130;16.844;2024-01-10T11:31:08;101312.03;;;6.98;48.46
77149;BME280;66122;47.130;16.844;2024-01-10T11:41:15;101303.16;;;8.07;46.32
77149;BME280;66122;47.130;16.844;2024-01-10T11:51:23;101294.16;;;9.03;44.16
77149;BME280;66122;47.130;16.844;2024-01-10T12:01:27;101253.84;;;8.53;44.02
77149;BME280;66122;47.130;16.844;2024-01-10T12:11:30;101256.69;;;9.89;41.17
77149;BME280;66122;47.130;16.844;2024-01-10T12:21:32;101256.59;;;9.60;39.59
77149;BME280;66122;47.130;16.844;2024-01-10T12:31:37;101246.00;;;10.26;39.35
77149;BME280;66122;47.130;16.844;2024-01-10T12:41:41;101237.19;;;10.83;36.75
77149;BME280;66122;47.130;16.844;2024-01-10T12:51:44;101219.22;;;10.35;38.06
77149;BME280;66122;47.130;16.844;2024-01-10T13:01:46;101229.31;;;8.87;38.89
77149;BME280;66122;47.130;16.844;2024-01-10T13:11:49;101222.25;;;7.09;42.11
77149;BME280;66122;47.130;16.844;2024-01-10T13:21:52;101239.13;;;4.33;50.79
77149;BME280;66122;47.130;16.844;2024-01-10T13:31:56;101234.09;;;2.57;55.47
77149;BME280;66122;47.130;16.844;2024-01-10T13:41:59;101246.13;;;2.09;56.92
77149;BME280;66122;47.130;16.844;2024-01-10T13:52:01;101246.75;;;1.63;59.60
77149;BME280;66122;47.130;16.844;2024-01-10T14:02:04;101244.78;;;1.27;60.75
77149;BME280;66122;47.130;16.844;2024-01-10T14:12:08;101232.28;;;0.91;60.04
77149;BME280;66122;47.130;16.844;2024-01-10T14:22:11;101236.50;;;0.76;59.01
77149;BME280;66122;47.130;16.844;2024-01-10T14:32:30;101246.63;;;0.46;61.51
77149;BME280;66122;47.130;16.844;2024-01-10T14:42:36;101239.47;;;0.30;62.29
77149;BME280;66122;47.130;16.844;2024-01-10T14:52:39;101238.50;;;0.22;66.05
77149;BME280;66122;47.130;16.844;2024-01-10T15:02:42;101260.13;;;0.15;67.52
77149;BME280;66122;47.130;16.844;2024-01-10T15:12:45;101250.47;;;0.05;69.60
77149;BME280;66122;47.130;16.844;2024-01-10T15:22:48;101255.31;;;-0.23;71.65
77149;BME280;66122;47.130;16.844;2024-01-10T15:32:51;101256.72;;;-0.46;74.73
77149;BME280;66122;47.130;16.844;2024-01-10T15:42:54;101249.59;;;-0.59;74.47
77149;BME280;66122;47.130;16.844;2024-01-10T15:52:57;101246.81;;;-0.68;74.44
77149;BME280;66122;47.130;16.844;2024-01-10T16:02:59;101236.56;;;-1.12;77.50
77149;BME280;66122;47.130;16.844;2024-01-10T16:13:02;101252.72;;;-1.31;78.95
77149;BME280;66122;47.130;16.844;2024-01-10T16:23:05;101246.16;;;-1.56;81.96
77149;BME280;66122;47.130;16.844;2024-01-10T16:33:08;101250.38;;;-1.63;81.56
77149;BME280;66122;47.130;16.844;2024-01-10T16:43:11;101252.34;;;-1.49;80.25
77149;BME280;66122;47.130;16.844;2024-01-10T16:53:14;101242.88;;;-1.47;80.43
77149;BME280;66122;47.130;16.844;2024-01-10T17:03:16;101253.97;;;-1.56;81.42
77149;BME280;66122;47.130;16.844;2024-01-10T17:13:21;101246.06;;;-1.62;81.85
77149;BME280;66122;47.130;16.844;2024-01-10T17:23:24;101244.16;;;-1.71;81.26
77149;BME280;66122;47.130;16.844;2024-01-10T17:33:27;101246.81;;;-1.68;80.92
77149;BME280;66122;47.130;16.844;2024-01-10T17:43:30;101232.06;;;-1.69;80.04
77149;BME280;66122;47.130;16.844;2024-01-10T17:53:32;101238.03;;;-1.74;80.14
77149;BME280;66122;47.130;16.844;2024-01-10T18:03:35;101225.63;;;-1.89;79.74
77149;BME280;66122;47.130;16.844;2024-01-10T18:13:38;101216.84;;;-1.95;81.72
77149;BME280;66122;47.130;16.844;2024-01-10T18:23:41;101213.28;;;-1.99;81.67
77149;BME280;66122;47.130;16.844;2024-01-10T18:33:44;101212.28;;;-2.06;82.54
77149;BME280;66122;47.130;16.844;2024-01-10T18:43:47;101207.44;;;-2.31;83.98
77149;BME280;66122;47.130;16.844;2024-01-10T18:53:50;101213.47;;;-2.30;83.86
77149;BME280;66122;47.130;16.844;2024-01-10T19:03:54;101211.63;;;-2.36;84.76
77149;BME280;66122;47.130;16.844;2024-01-10T19:13:56;101202.00;;;-2.79;88.62
77149;BME280;66122;47.130;16.844;2024-01-10T19:23:59;101206.59;;;-2.69;87.78
77149;BME280;66122;47.130;16.844;2024-01-10T19:34:04;101205.00;;;-2.62;87.58
77149;BME280;66122;47.130;16.844;2024-01-10T19:44:07;101198.94;;;-2.63;86.61
77149;BME280;66122;47.130;16.844;2024-01-10T19:54:09;101197.31;;;-2.59;87.22
77149;BME280;66122;47.130;16.844;2024-01-10T20:04:12;101193.78;;;-2.61;86.24
77149;BME280;66122;47.130;16.844;2024-01-10T20:14:15;101198.50;;;-2.83;87.54
77149;BME280;66122;47.130;16.844;2024-01-10T20:24:18;101177.81;;;-3.17;88.59
77149;BME280;66122;47.130;16.844;2024-01-10T20:34:22;101198.69;;;-3.09;88.63
77149;BME280;66122;47.130;16.844;2024-01-10T20:44:25;101199.88;;;-3.33;89.66
77149;BME280;66122;47.130;16.844;2024-01-10T20:54:27;101209.34;;;-3.66;90.78
77149;BME280;66122;47.130;16.844;2024-01-10T21:04:30;101213.31;;;-4.40;92.01
77149;BME280;66122;47.130;16.844;2024-01-10T21:14:34;101206.84;;;-4.24;93.84
77149;BME280;66122;47.130;16.844;2024-01-10T21:24:37;101194.25;;;-3.81;94.11
77149;BME280;66122;47.130;16.844;2024-01-10T21:34:39;101191.81;;;-3.76;94.76
77149;BME280;66122;47.130;16.844;2024-01-10T21:44:42;101205.28;;;-3.89;94.03
77149;BME280;66122;47.130;16.844;2024-01-10T21:54:44;101186.28;;;-3.88;95.25
77149;BME280;66122;47.130;16.844;2024-01-10T22:04:47;101170.69;;;-3.91;95.44
77149;BME280;66122;47.130;16.844;2024-01-10T22:14:49;101166.19;;;-4.28;96.21
77149;BME280;66122;47.130;16.844;2024-01-10T22:24:52;101161.78;;;-4.32;96.32
77149;BME280;66122;47.130;16.844;2024-01-10T22:34:55;101162.56;;;-4.35;95.04
77149;BME280;66122;47.130;16.844;2024-01-10T22:44:57;101144.78;;;-4.53;97.66
77149;BME280;66122;47.130;16.844;2024-01-10T22:55:00;101146.44;;;-4.85;100.00
77149;BME280;66122;47.130;16.844;2024-01-10T23:05:03;101144.03;;;-4.79;100.00
77149;BME280;66122;47.130;16.844;2024-01-10T23:15:06;101136.50;;;-4.71;99.83
77149;BME280;66122;47.130;16.844;2024-01-10T23:25:10;101132.50;;;-4.61;97.85
77149;BME280;66122;47.130;16.844;2024-01-10T23:35:13;101127.41;;;-5.15;100.00
77149;BME280;66122;47.130;16.844;2024-01-10T23:45:16;101104.63;;;-5.28;100.00
77149;BME280;66122;47.130;16.844;2024-01-10T23:55:19;101112.00;;;-5.40;100.00
